createdAt,value
2022-12-17T00:00:41.825Z,67.97
2022-12-17T00:03:28.925Z,64.43
2022-12-17T00:06:14.171Z,64.63
2022-12-17T00:08:59.497Z,62.50
2022-12-17T00:11:44.809Z,70.57
2022-12-17T00:14:30.160Z,61.60
2022-12-17T00:17:15.545Z,60.43
2022-12-17T00:20:00.896Z,68.47
2022-12-17T00:22:46.343Z,68.97
2022-12-17T00:25:31.797Z,66.17
2022-12-17T00:28:17.283Z,63.87
2022-12-17T00:31:02.641Z,63.60
2022-12-17T00:33:49.538Z,59.27
2022-12-17T00:36:34.869Z,62.73
2022-12-17T00:39:21.764Z,58.73
2022-12-17T00:42:07.104Z,62.83
2022-12-17T00:44:52.819Z,63.13
2022-12-17T00:47:39.396Z,59.90
2022-12-17T00:50:24.660Z,61.13
2022-12-17T00:53:11.115Z,56.67
2022-12-17T00:55:56.445Z,61.50
2022-12-17T00:58:42.388Z,56.43
2022-12-17T01:01:27.850Z,59.50
2022-12-17T01:04:13.131Z,62.47
2022-12-17T01:06:58.478Z,62.10
2022-12-17T01:09:43.942Z,57.30
2022-12-17T01:12:29.640Z,57.53
2022-12-17T01:15:15.077Z,63.37
2022-12-17T01:18:00.438Z,60.77
2022-12-17T01:20:45.870Z,57.47
2022-12-17T01:23:31.406Z,65.57
2022-12-17T01:26:16.670Z,54.60
2022-12-17T01:29:01.962Z,60.13
2022-12-17T01:31:47.430Z,56.73
2022-12-17T01:34:32.693Z,58.87
2022-12-17T01:37:18.091Z,58.33
2022-12-17T01:40:03.519Z,64.07
2022-12-17T01:42:57.064Z,59.23
2022-12-17T01:45:42.361Z,60.97
2022-12-17T01:48:32.043Z,61.80
2022-12-17T01:51:17.310Z,59.87
2022-12-17T01:54:07.716Z,62.17
2022-12-17T01:56:54.066Z,63.10
2022-12-17T01:59:42.462Z,62.20
2022-12-17T02:02:28.003Z,60.70
2022-12-17T02:05:13.358Z,57.10
2022-12-17T02:08:06.313Z,62.40
2022-12-17T02:11:00.761Z,58.53
2022-12-17T02:13:50.890Z,58.37
2022-12-17T02:16:43.562Z,57.63
2022-12-17T02:19:41.647Z,53.97
2022-12-17T02:22:32.696Z,52.03
2022-12-17T02:25:22.526Z,56.60
2022-12-17T02:28:08.418Z,60.30
2022-12-17T02:31:13.678Z,58.63
2022-12-17T02:34:00.371Z,57.53
2022-12-17T02:36:52.563Z,58.80
2022-12-17T02:39:40.776Z,55.30
2022-12-17T02:42:26.443Z,56.03
2022-12-17T02:45:14.139Z,55.00
2022-12-17T02:47:59.675Z,50.03
2022-12-17T02:50:45.112Z,47.47
2022-12-17T02:53:31.410Z,44.50
2022-12-17T02:56:16.898Z,45.47
2022-12-17T02:59:02.139Z,40.80
2022-12-17T03:01:47.742Z,39.73
2022-12-17T03:04:33.400Z,40.70
2022-12-17T03:07:18.787Z,39.93
2022-12-17T03:10:04.148Z,36.50
2022-12-17T03:12:51.978Z,39.50
2022-12-17T03:15:37.286Z,38.87
2022-12-17T03:18:22.820Z,30.57
2022-12-17T03:21:10.685Z,28.90
2022-12-17T03:23:56.082Z,30.90
2022-12-17T03:26:41.480Z,34.10
2022-12-17T03:29:26.878Z,32.53
2022-12-17T03:32:12.188Z,33.50
2022-12-17T03:34:57.451Z,29.83
2022-12-17T03:37:43.008Z,36.90
2022-12-17T03:40:28.616Z,32.20
2022-12-17T03:43:13.904Z,35.57
2022-12-17T03:45:59.240Z,39.23
2022-12-17T03:48:44.546Z,37.30
2022-12-17T03:51:29.922Z,39.57
2022-12-17T03:54:15.264Z,35.80
2022-12-17T03:57:00.671Z,37.13
2022-12-17T03:59:46.045Z,38.90
2022-12-17T04:02:31.723Z,36.33
2022-12-17T04:05:20.352Z,31.80
2022-12-17T04:08:06.054Z,36.50
2022-12-17T04:10:51.305Z,31.90
2022-12-17T04:13:40.726Z,39.17
2022-12-17T04:16:26.088Z,31.17
2022-12-17T04:19:11.337Z,31.40
2022-12-17T04:21:56.742Z,34.93
2022-12-17T04:24:41.913Z,38.17
2022-12-17T04:27:27.395Z,35.83
2022-12-17T04:30:12.828Z,37.87
2022-12-17T04:32:58.105Z,35.37
2022-12-17T04:35:43.518Z,30.00
2022-12-17T04:38:28.784Z,36.27
2022-12-17T04:41:14.045Z,32.03
2022-12-17T04:44:03.014Z,38.13
2022-12-17T04:46:50.458Z,35.73
2022-12-17T04:49:35.987Z,34.30
2022-12-17T04:52:22.907Z,38.53
2022-12-17T04:55:08.028Z,38.13
2022-12-17T04:57:53.451Z,31.53
2022-12-17T05:00:38.942Z,34.43
2022-12-17T05:03:24.851Z,33.53
2022-12-17T05:06:10.337Z,36.33
2022-12-17T05:08:55.703Z,35.17
2022-12-17T05:11:41.538Z,40.60
2022-12-17T05:14:26.986Z,38.70
2022-12-17T05:17:12.320Z,40.93
2022-12-17T05:19:57.850Z,39.50
2022-12-17T05:22:50.654Z,45.00
2022-12-17T05:25:35.973Z,43.63
2022-12-17T05:28:21.394Z,49.70
2022-12-17T05:31:10.569Z,51.83
2022-12-17T05:33:55.719Z,52.80
2022-12-17T05:36:41.170Z,57.27
2022-12-17T05:39:26.544Z,67.20
2022-12-17T05:42:11.953Z,57.67
2022-12-17T05:44:57.449Z,61.10
2022-12-17T05:47:42.536Z,77.50
2022-12-17T05:50:28.114Z,122.40
2022-12-17T05:53:19.079Z,77.33
2022-12-17T05:56:06.925Z,73.20
2022-12-17T05:58:52.299Z,90.93
2022-12-17T06:01:37.825Z,91.53
2022-12-17T06:04:23.138Z,83.57
2022-12-17T06:07:08.565Z,89.77
2022-12-17T06:09:53.903Z,111.70
2022-12-17T06:12:39.450Z,59.90
2022-12-17T06:15:24.929Z,115.63
2022-12-17T06:18:16.670Z,82.33
2022-12-17T06:21:02.154Z,87.17
2022-12-17T06:23:47.658Z,84.53
2022-12-17T06:26:32.591Z,101.00
2022-12-17T06:29:18.007Z,80.77
2022-12-17T06:32:03.300Z,84.67
2022-12-17T06:34:48.623Z,69.67
2022-12-17T06:37:34.151Z,65.13
2022-12-17T06:40:19.457Z,63.77
2022-12-17T06:43:11.517Z,72.10
2022-12-17T06:45:57.039Z,70.57
2022-12-17T06:48:42.475Z,63.87
2022-12-17T06:51:27.752Z,63.43
2022-12-17T06:54:13.075Z,63.07
2022-12-17T06:56:58.426Z,66.97
2022-12-17T06:59:43.730Z,72.97
2022-12-17T07:02:32.323Z,72.33
2022-12-17T07:05:17.417Z,71.10
2022-12-17T07:08:02.827Z,59.87
2022-12-17T07:10:48.227Z,85.50
2022-12-17T07:13:38.540Z,64.87
2022-12-17T07:16:24.185Z,71.50
2022-12-17T07:19:09.638Z,76.87
2022-12-17T07:21:55.098Z,74.87
2022-12-17T07:24:40.474Z,79.87
2022-12-17T07:27:25.857Z,67.00
2022-12-17T07:30:11.169Z,67.20
2022-12-17T07:32:56.634Z,62.60
2022-12-17T07:35:42.063Z,95.77
2022-12-17T07:38:27.268Z,72.90
2022-12-17T07:41:12.621Z,86.50
2022-12-17T07:43:58.258Z,82.37
2022-12-17T07:46:43.658Z,103.57
2022-12-17T07:49:29.129Z,97.40
2022-12-17T07:52:14.578Z,87.83
2022-12-17T07:54:59.988Z,88.93
2022-12-17T07:57:45.411Z,98.80
2022-12-17T08:00:31.224Z,99.67
2022-12-17T08:03:19.659Z,96.47
2022-12-17T08:06:05.319Z,91.73
2022-12-17T08:08:50.369Z,85.67
2022-12-17T08:11:35.763Z,71.27
2022-12-17T08:14:21.209Z,93.87
2022-12-17T08:17:06.720Z,86.50
2022-12-17T08:19:51.825Z,77.13
2022-12-17T08:22:37.247Z,81.20
2022-12-17T08:25:22.761Z,100.43
2022-12-17T08:28:41.221Z,84.93
2022-12-17T08:31:19.460Z,94.63
2022-12-17T08:34:07.871Z,123.47
2022-12-17T08:36:53.884Z,77.80
2022-12-17T08:39:39.149Z,100.37
2022-12-17T08:42:24.403Z,71.80
2022-12-17T08:45:10.038Z,96.37
2022-12-17T08:47:59.190Z,72.67
2022-12-17T08:50:48.817Z,100.97
2022-12-17T08:53:35.229Z,92.67
2022-12-17T08:56:20.857Z,83.40
2022-12-17T08:59:06.053Z,116.77
2022-12-17T09:01:51.511Z,95.50
2022-12-17T09:04:36.502Z,71.83
2022-12-17T09:07:21.864Z,88.70
2022-12-17T09:10:07.018Z,159.20
2022-12-17T09:12:52.365Z,83.43
2022-12-17T09:15:37.790Z,89.03
2022-12-17T09:18:23.050Z,89.80
2022-12-17T09:21:14.538Z,64.93
2022-12-17T09:24:00.155Z,71.43
2022-12-17T09:26:45.393Z,83.93
2022-12-17T09:29:30.921Z,68.13
2022-12-17T09:32:16.200Z,59.73
2022-12-17T09:35:01.552Z,63.10
2022-12-17T09:37:46.940Z,78.43
2022-12-17T09:40:36.842Z,93.67
2022-12-17T09:43:25.246Z,46.87
2022-12-17T09:46:10.786Z,82.83
2022-12-17T09:48:59.309Z,112.80
2022-12-17T09:51:46.084Z,85.23
2022-12-17T09:54:39.662Z,118.07
2022-12-17T09:57:27.332Z,101.83
2022-12-17T10:00:26.363Z,106.03
2022-12-17T10:03:12.079Z,83.40
2022-12-17T10:05:59.569Z,87.53
2022-12-17T10:08:46.425Z,64.43
2022-12-17T10:11:48.208Z,63.93
2022-12-17T10:14:37.838Z,66.13
2022-12-17T10:17:23.288Z,75.57
2022-12-17T10:20:10.637Z,76.10
2022-12-17T10:23:07.257Z,67.10
2022-12-17T10:25:52.586Z,60.07
2022-12-17T10:28:42.511Z,62.60
2022-12-17T10:31:35.075Z,64.80
2022-12-17T10:34:20.415Z,73.03
2022-12-17T10:37:07.425Z,78.80
2022-12-17T10:39:52.918Z,63.53
2022-12-17T10:42:39.905Z,62.37
2022-12-17T10:45:42.189Z,57.13
2022-12-17T10:48:41.489Z,56.10
2022-12-17T10:51:38.058Z,57.57
2022-12-17T10:54:27.430Z,53.13
2022-12-17T10:57:15.593Z,57.43
2022-12-17T11:00:00.994Z,57.53
2022-12-17T11:02:47.985Z,62.67
2022-12-17T11:05:35.112Z,65.17
2022-12-17T11:08:21.175Z,58.07
2022-12-17T11:11:07.484Z,62.80
2022-12-17T11:13:55.457Z,57.53
2022-12-17T11:16:45.564Z,54.57
2022-12-17T11:19:47.706Z,52.90
2022-12-17T11:22:39.877Z,53.60
2022-12-17T11:25:31.750Z,53.00
2022-12-17T11:28:29.811Z,58.43
2022-12-17T11:31:21.417Z,55.20
2022-12-17T11:34:13.168Z,48.50
2022-12-17T11:37:06.329Z,56.17
2022-12-17T11:40:01.709Z,58.17
2022-12-17T11:42:52.481Z,57.63
2022-12-17T11:45:43.864Z,53.47
2022-12-17T11:48:34.200Z,51.40
2022-12-17T11:51:26.055Z,52.60
2022-12-17T11:54:17.437Z,54.67
2022-12-17T11:57:04.392Z,50.00
2022-12-17T12:00:04.369Z,56.80
2022-12-17T12:02:50.443Z,51.27
2022-12-17T12:05:41.743Z,55.23
2022-12-17T12:08:47.385Z,59.83
2022-12-17T12:11:44.957Z,45.67
2022-12-17T12:14:30.469Z,44.37
2022-12-17T12:17:24.017Z,44.23
2022-12-17T12:20:09.316Z,44.17
2022-12-17T12:23:08.539Z,45.10
2022-12-17T12:26:01.192Z,42.87
2022-12-17T12:28:53.771Z,50.03
2022-12-17T12:31:46.827Z,42.67
2022-12-17T12:34:48.725Z,40.60
2022-12-17T12:37:35.682Z,47.47
2022-12-17T12:40:32.207Z,43.47
2022-12-17T12:43:23.521Z,43.60
2022-12-17T12:46:11.232Z,39.00
2022-12-17T12:48:56.676Z,38.73
2022-12-17T12:51:47.111Z,40.20
2022-12-17T12:54:39.735Z,35.17
2022-12-17T12:57:43.918Z,36.97
2022-12-17T13:00:42.700Z,41.83
2022-12-17T13:03:39.791Z,37.37
2022-12-17T13:06:06.865Z,36.77
2022-12-17T13:08:33.464Z,40.53
2022-12-17T13:11:09.459Z,35.30
2022-12-17T13:13:39.675Z,34.80
2022-12-17T13:16:42.678Z,39.70
2022-12-17T13:19:32.651Z,36.30
2022-12-17T13:22:12.821Z,40.20
2022-12-17T13:24:39.618Z,40.63
2022-12-17T13:27:26.162Z,37.90
2022-12-17T13:29:52.884Z,34.20
2022-12-17T13:32:25.895Z,37.93
2022-12-17T13:34:52.515Z,35.40
2022-12-17T13:37:32.521Z,35.83
2022-12-17T13:40:03.642Z,35.20
2022-12-17T13:42:31.509Z,36.77
2022-12-17T13:44:59.029Z,36.77
2022-12-17T13:47:30.701Z,36.80
2022-12-17T13:50:32.111Z,32.70
2022-12-17T13:52:45.761Z,35.00
2022-12-17T13:55:26.210Z,32.60
2022-12-17T13:57:53.996Z,30.87
2022-12-17T14:00:25.529Z,30.07
2022-12-17T14:02:53.011Z,29.27
2022-12-17T14:05:46.154Z,31.37
2022-12-17T14:08:15.922Z,26.53
2022-12-17T14:10:53.094Z,28.27
2022-12-17T14:13:19.714Z,25.57
2022-12-17T14:15:48.592Z,26.80
2022-12-17T14:18:17.008Z,21.47
2022-12-17T14:20:43.869Z,22.73
2022-12-17T14:23:23.492Z,23.90
2022-12-17T14:25:50.262Z,20.60
2022-12-17T14:28:36.002Z,24.13
2022-12-17T14:31:26.488Z,22.77
2022-12-17T14:34:08.471Z,21.43
2022-12-17T14:36:36.431Z,21.40
2022-12-17T14:39:11.132Z,21.67
2022-12-17T14:41:57.196Z,26.10
2022-12-17T14:44:28.015Z,24.67
2022-12-17T14:47:10.107Z,23.80
2022-12-17T14:49:37.982Z,26.67
2022-12-17T14:52:14.175Z,25.27
2022-12-17T14:54:46.989Z,23.20
2022-12-17T14:57:20.835Z,24.53
2022-12-17T14:59:47.501Z,23.40
2022-12-17T15:02:24.100Z,28.57
2022-12-17T15:04:52.074Z,28.90
2022-12-17T15:07:23.978Z,25.33
2022-12-17T15:09:52.573Z,28.77
2022-12-17T15:12:19.960Z,30.03
2022-12-17T15:14:46.767Z,34.07
2022-12-17T15:17:13.784Z,25.70
2022-12-17T15:19:40.719Z,35.27
2022-12-17T15:22:11.047Z,46.17
2022-12-17T15:24:37.818Z,46.13
2022-12-17T15:27:04.390Z,37.43
2022-12-17T15:29:31.980Z,34.30
2022-12-17T15:31:58.633Z,33.30
2022-12-17T15:34:25.254Z,35.47
2022-12-17T15:36:51.870Z,28.60
2022-12-17T15:39:18.503Z,30.00
2022-12-17T15:42:03.587Z,28.93
2022-12-17T15:44:30.370Z,31.13
2022-12-17T15:46:57.050Z,25.53
2022-12-17T15:49:23.710Z,28.20
2022-12-17T15:51:50.257Z,28.67
2022-12-17T15:54:16.856Z,30.67
2022-12-17T15:56:51.626Z,30.90
2022-12-17T15:59:18.266Z,31.63
2022-12-17T16:01:44.891Z,27.53
2022-12-17T16:04:17.817Z,26.43
2022-12-17T16:06:48.183Z,27.63
2022-12-17T16:09:14.858Z,27.30
2022-12-17T16:11:41.471Z,27.63
2022-12-17T16:14:08.160Z,33.83
2022-12-17T16:16:34.909Z,42.20
2022-12-17T16:19:02.146Z,37.87
2022-12-17T16:21:28.833Z,38.83
2022-12-17T16:23:55.425Z,52.97
2022-12-17T16:26:22.042Z,56.60
2022-12-17T16:28:49.242Z,42.87
2022-12-17T16:31:16.162Z,41.73
2022-12-17T16:33:43.607Z,37.00
2022-12-17T16:36:12.391Z,36.67
2022-12-17T16:38:45.924Z,42.43
2022-12-17T16:41:12.946Z,48.17
2022-12-17T16:43:39.738Z,44.33
2022-12-17T16:46:12.107Z,42.83
2022-12-17T16:48:39.584Z,40.50
2022-12-17T16:51:14.958Z,40.60
2022-12-17T16:53:41.635Z,37.87
2022-12-17T16:56:08.291Z,41.50
2022-12-17T16:58:35.430Z,40.00
2022-12-17T17:01:02.275Z,44.90
2022-12-17T17:03:28.974Z,41.10
2022-12-17T17:05:59.716Z,37.13
2022-12-17T17:08:26.322Z,34.97
2022-12-17T17:10:52.906Z,42.13
2022-12-17T17:13:19.493Z,41.23
2022-12-17T17:15:46.136Z,36.03
2022-12-17T17:18:12.732Z,40.10
2022-12-17T17:20:39.329Z,42.10
2022-12-17T17:23:05.960Z,32.03
2022-12-17T17:25:54.187Z,43.40
2022-12-17T17:28:19.141Z,43.43
2022-12-17T17:30:45.780Z,43.13
2022-12-17T17:33:12.411Z,43.63
2022-12-17T17:35:38.989Z,38.97
2022-12-17T17:38:05.657Z,40.97
2022-12-17T17:40:32.207Z,43.43
2022-12-17T17:42:58.776Z,36.50
2022-12-17T17:45:25.438Z,41.90
2022-12-17T17:47:52.087Z,47.13
2022-12-17T17:50:18.702Z,44.50
2022-12-17T17:52:45.419Z,40.67
2022-12-17T17:55:11.983Z,42.30
2022-12-17T17:57:38.584Z,48.20
2022-12-17T18:00:05.615Z,47.67
2022-12-17T18:02:32.414Z,44.90
2022-12-17T18:04:59.208Z,44.60
2022-12-17T18:07:27.039Z,46.38
2022-12-17T18:09:54.523Z,44.50
2022-12-17T18:12:39.944Z,46.23
2022-12-17T18:15:15.721Z,54.38
2022-12-17T18:17:44.071Z,46.20
2022-12-17T18:20:12.201Z,45.63
2022-12-17T18:22:39.142Z,47.17
2022-12-17T18:25:05.868Z,45.45
2022-12-17T18:27:33.673Z,53.58
2022-12-17T18:30:00.338Z,46.77
2022-12-17T18:32:27.020Z,51.37
2022-12-17T18:34:53.814Z,48.17
2022-12-17T18:37:20.451Z,46.60
2022-12-17T18:39:47.428Z,51.63
2022-12-17T18:42:32.650Z,48.77
2022-12-17T18:44:59.237Z,52.90
2022-12-17T18:47:25.943Z,52.17
2022-12-17T18:49:52.634Z,52.33
2022-12-17T18:52:19.572Z,54.42
2022-12-17T18:54:46.181Z,49.90
2022-12-17T18:57:13.425Z,51.07
2022-12-17T18:59:40.778Z,51.50
2022-12-17T19:02:14.179Z,53.50
2022-12-17T19:04:41.111Z,58.65
2022-12-17T19:07:07.762Z,57.63
2022-12-17T19:09:35.819Z,54.33
2022-12-17T19:12:03.799Z,53.55
2022-12-17T19:14:31.834Z,63.92
2022-12-17T19:16:58.751Z,60.78
2022-12-17T19:19:25.862Z,58.58
2022-12-17T19:21:54.951Z,62.70
2022-12-17T19:24:22.183Z,55.50
2022-12-17T19:26:49.185Z,58.60
2022-12-17T19:29:17.132Z,58.45
2022-12-17T19:31:43.948Z,54.33
2022-12-17T19:34:11.933Z,70.57
2022-12-17T19:36:38.839Z,51.40
2022-12-17T19:39:07.948Z,46.42
2022-12-17T19:41:34.698Z,47.70
2022-12-17T19:44:03.405Z,42.50
2022-12-17T19:46:30.881Z,44.40
2022-12-17T19:48:57.845Z,45.87
2022-12-17T19:51:26.236Z,41.75
2022-12-17T19:53:52.838Z,44.90
2022-12-17T19:56:23.336Z,46.15
2022-12-17T19:58:52.446Z,40.17
2022-12-17T20:01:21.223Z,41.60
2022-12-17T20:03:48.502Z,44.22
2022-12-17T20:06:15.919Z,41.08
2022-12-17T20:08:42.561Z,39.63
2022-12-17T20:11:28.436Z,46.15
2022-12-17T20:13:56.076Z,42.03
2022-12-17T20:16:23.117Z,39.10
2022-12-17T20:18:50.655Z,36.20
2022-12-17T20:21:19.605Z,36.70
2022-12-17T20:23:49.693Z,50.97
2022-12-17T20:26:16.995Z,46.23
2022-12-17T20:28:44.216Z,40.67
2022-12-17T20:31:11.547Z,39.85
2022-12-17T20:33:38.302Z,38.87
2022-12-17T20:36:05.330Z,35.88
2022-12-17T20:38:32.364Z,37.37
2022-12-17T20:40:59.213Z,36.07
2022-12-17T20:43:27.466Z,34.27
2022-12-17T20:45:58.157Z,33.97
2022-12-17T20:48:25.253Z,39.90
2022-12-17T20:50:51.951Z,43.47
2022-12-17T20:53:19.268Z,38.75
2022-12-17T20:55:46.163Z,44.85
2022-12-17T20:58:13.661Z,49.70
2022-12-17T21:00:40.579Z,47.37
2022-12-17T21:03:07.500Z,42.00
2022-12-17T21:05:35.275Z,36.93
2022-12-17T21:08:02.286Z,39.65
2022-12-17T21:10:28.895Z,42.30
2022-12-17T21:13:14.472Z,36.30
2022-12-17T21:15:41.114Z,38.00
2022-12-17T21:18:07.768Z,33.90
2022-12-17T21:20:34.381Z,32.22
2022-12-17T21:23:01.373Z,40.10
2022-12-17T21:25:28.012Z,39.17
2022-12-17T21:27:54.674Z,36.38
2022-12-17T21:30:21.331Z,36.25
2022-12-17T21:32:47.930Z,39.17
2022-12-17T21:35:15.980Z,40.15
2022-12-17T21:37:43.791Z,34.13
2022-12-17T21:40:11.462Z,35.53
2022-12-17T21:42:57.040Z,32.50
2022-12-17T21:45:24.402Z,36.85
2022-12-17T21:47:51.183Z,33.53
2022-12-17T21:50:17.886Z,31.48
2022-12-17T21:52:44.604Z,32.03
2022-12-17T21:55:11.244Z,28.55
2022-12-17T21:57:38.751Z,31.90
2022-12-17T22:00:05.760Z,31.02
2022-12-17T22:02:32.551Z,35.67
2022-12-17T22:05:00.600Z,29.92
2022-12-17T22:07:28.049Z,32.33
2022-12-17T22:10:19.520Z,30.23
2022-12-17T22:13:02.285Z,29.48
2022-12-17T22:15:34.711Z,29.38
2022-12-17T22:18:12.799Z,27.52
2022-12-17T22:20:39.523Z,31.70
2022-12-17T22:23:06.242Z,36.80
2022-12-17T22:25:36.046Z,30.10
2022-12-17T22:28:02.770Z,31.52
2022-12-17T22:30:47.902Z,31.33
2022-12-17T22:33:48.909Z,30.25
2022-12-17T22:37:04.914Z,32.60
2022-12-17T22:40:44.805Z,31.25
2022-12-17T22:44:32.352Z,29.83
2022-12-17T22:44:53.246Z,31.08
2022-12-17T22:47:20.689Z,30.38
2022-12-17T22:49:47.302Z,25.45
2022-12-17T22:52:14.166Z,30.73
2022-12-17T22:54:43.132Z,27.02
2022-12-17T22:57:36.287Z,28.90
2022-12-17T22:59:56.744Z,28.60
2022-12-17T23:02:23.481Z,25.35
2022-12-17T23:04:50.258Z,27.58
2022-12-17T23:07:17.059Z,25.98
2022-12-17T23:09:43.651Z,25.98
2022-12-17T23:12:29.059Z,25.40
2022-12-17T23:14:58.479Z,24.10
2022-12-17T23:17:25.255Z,24.80
2022-12-17T23:19:51.879Z,29.67
2022-12-17T23:22:22.213Z,30.27
2022-12-17T23:24:49.176Z,30.02
2022-12-17T23:27:15.758Z,33.35
2022-12-17T23:29:42.378Z,31.17
2022-12-17T23:32:08.944Z,30.13
2022-12-17T23:34:35.551Z,27.40
2022-12-17T23:37:03.663Z,26.10
2022-12-17T23:39:30.340Z,31.50
2022-12-17T23:41:56.996Z,28.27
2022-12-17T23:44:23.614Z,31.42
2022-12-17T23:46:50.291Z,26.45
2022-12-17T23:49:17.101Z,29.83
2022-12-17T23:51:43.727Z,31.70
2022-12-17T23:54:10.497Z,30.25
2022-12-17T23:56:37.150Z,30.27
2022-12-17T23:59:04.211Z,27.75
